Terminal Aerodrome Forecast
Issued by NWS Albany, NY

Home | Current Version | Previous Version | Text Only | Print | Product List | Glossary On
Versions: 1 2 3 4 5 6 7 8 9 10 11 12 13 14 15 16 17 18 19 20 21 22
000
FTUS41 KALY 281005 AAA
TAFGFL
TAF AMD
KGFL 281005Z 2810/2906 20006KT 6SM BR SCT006 OVC015
      TEMPO 2810/2813 4SM BR OVC006
     FM281400 20008KT P6SM VCSH BKN050
     FM281700 24010G15KT P6SM VCSH BKN050
     FM282000 30012G18KT P6SM SCT050
     FM290000 32007KT P6SM SKC
     FM290400 VRB02KT P6SM SKC=

USA.gov is the U.S. government's official web portal to all federal, state and local government web resources and services.